createdAt,value
2023-02-03T00:01:50.895Z,0
2023-02-03T00:07:11.296Z,0
2023-02-03T00:12:29.115Z,0
2023-02-03T00:17:46.560Z,0
2023-02-03T00:23:06.569Z,0
2023-02-03T00:28:24.193Z,0
2023-02-03T00:33:44.505Z,0
2023-02-03T00:39:02.061Z,0
2023-02-03T00:44:19.718Z,0
2023-02-03T00:49:37.109Z,0
2023-02-03T00:54:54.566Z,0
2023-02-03T01:00:11.897Z,0
2023-02-03T01:05:29.832Z,0
2023-02-03T01:10:47.687Z,0
2023-02-03T01:16:05.108Z,0
2023-02-03T01:21:22.719Z,0
2023-02-03T01:26:40.422Z,0
2023-02-03T01:31:57.909Z,0
2023-02-03T01:37:15.718Z,0
2023-02-03T01:42:33.009Z,0
2023-02-03T01:47:50.577Z,0
2023-02-03T01:53:07.788Z,0
2023-02-03T01:58:28.309Z,0
2023-02-03T02:03:46.105Z,0
2023-02-03T02:09:03.616Z,0
2023-02-03T02:14:20.963Z,0
2023-02-03T02:19:38.409Z,0
2023-02-03T02:24:55.888Z,0
2023-02-03T02:30:13.199Z,0
2023-02-03T02:35:39.356Z,0
2023-02-03T02:40:57.123Z,0
2023-02-03T02:46:14.414Z,0
2023-02-03T02:51:31.943Z,0
2023-02-03T02:56:49.523Z,0
2023-02-03T03:02:12.483Z,0
2023-02-03T03:07:30.152Z,0
2023-02-03T03:12:50.463Z,0
2023-02-03T03:18:08.419Z,0
2023-02-03T03:23:25.866Z,0
2023-02-03T03:28:43.349Z,0
2023-02-03T03:34:00.849Z,0
2023-02-03T03:39:18.510Z,0
2023-02-03T03:44:36.147Z,0
2023-02-03T03:49:53.553Z,0
2023-02-03T03:55:10.961Z,0
2023-02-03T04:00:28.775Z,0
2023-02-03T04:05:46.541Z,0
2023-02-03T04:11:04.016Z,0
2023-02-03T04:16:21.606Z,0
2023-02-03T04:21:39.257Z,0
2023-02-03T04:26:56.659Z,0
2023-02-03T04:32:13.924Z,0
2023-02-03T04:37:31.454Z,0
2023-02-03T04:42:48.791Z,0
2023-02-03T04:48:06.377Z,0
2023-02-03T04:53:23.913Z,0
2023-02-03T05:04:31.347Z,0
2023-02-03T05:09:48.893Z,0
2023-02-03T05:15:06.253Z,0
2023-02-03T05:20:23.653Z,0
2023-02-03T05:25:41.370Z,0
2023-02-03T05:30:58.975Z,0
2023-02-03T05:36:17.005Z,0
2023-02-03T05:41:34.506Z,0
2023-02-03T05:46:51.975Z,0
2023-02-03T05:52:09.374Z,0
2023-02-03T05:57:26.885Z,0
2023-02-03T06:02:44.828Z,0
2023-02-03T06:08:02.390Z,0
2023-02-03T06:13:20.145Z,0
2023-02-03T06:18:37.631Z,0
2023-02-03T06:23:55.207Z,0
2023-02-03T06:29:13.258Z,0
2023-02-03T06:34:30.485Z,0
2023-02-03T06:39:47.849Z,0
2023-02-03T06:45:05.306Z,0
2023-02-03T06:50:23.058Z,0
2023-02-03T06:55:40.067Z,19.2
2023-02-03T07:00:57.086Z,39.2
2023-02-03T07:06:14.192Z,77.5
2023-02-03T07:11:31.464Z,133.8
2023-02-03T07:16:48.562Z,224.2
2023-02-03T07:22:06.012Z,417.1
2023-02-03T07:27:23.233Z,658.3
2023-02-03T07:32:40.623Z,802.9
2023-02-03T07:37:57.860Z,1037.1
2023-02-03T07:43:14.972Z,1219.6
2023-02-03T07:48:32.216Z,1482.9
2023-02-03T07:53:49.389Z,1292.9
2023-02-03T07:59:06.458Z,1723.3
2023-02-03T08:04:23.692Z,917.9
2023-02-03T08:09:40.835Z,1040.4
2023-02-03T08:14:57.993Z,771.7
2023-02-03T08:20:15.284Z,758.7
2023-02-03T08:25:32.378Z,861.2
2023-02-03T08:30:49.444Z,954.2
2023-02-03T08:36:06.504Z,2622.1
2023-02-03T08:41:24.031Z,1876.7
2023-02-03T08:46:41.564Z,2241.7
2023-02-03T08:51:58.599Z,1458.3
2023-02-03T08:57:15.951Z,1600.8
2023-02-03T09:02:32.982Z,1548.3
2023-02-03T09:07:50.002Z,1957.5
2023-02-03T09:13:06.985Z,1920.8
2023-02-03T09:18:24.226Z,2577.9
2023-02-03T09:23:41.215Z,2134.6
2023-02-03T09:28:58.562Z,2659.2
2023-02-03T09:34:15.675Z,2471.7
2023-02-03T09:39:32.740Z,2651.2
2023-02-03T09:44:49.755Z,2853.3
2023-02-03T09:50:06.857Z,2551.3
2023-02-03T09:55:23.991Z,2449.6
2023-02-03T10:00:41.025Z,2616.3
2023-02-03T10:06:03.405Z,2728.3
2023-02-03T10:11:20.424Z,2915
2023-02-03T10:16:37.425Z,2605.8
2023-02-03T10:21:54.546Z,3119.2
2023-02-03T10:27:11.547Z,2297.9
2023-02-03T10:32:28.717Z,3431.7
2023-02-03T10:37:45.969Z,2477.9
2023-02-03T10:43:06.514Z,3597.9
2023-02-03T10:48:23.994Z,3845.8
2023-02-03T10:53:41.128Z,5478.8
2023-02-03T10:59:00.957Z,6039.6
2023-02-03T11:04:18.301Z,5456.7
2023-02-03T11:09:35.302Z,4438.8
2023-02-03T11:14:54.851Z,5666.7
2023-02-03T11:20:12.586Z,4620.8
2023-02-03T11:25:32.498Z,4540
2023-02-03T11:30:49.685Z,4680.4
2023-02-03T11:36:06.966Z,4266.7
2023-02-03T11:41:27.057Z,4499.6
2023-02-03T11:46:44.549Z,4048.3
2023-02-03T11:52:02.030Z,4676.3
2023-02-03T11:57:19.176Z,4975
2023-02-03T12:02:36.495Z,5772.1
2023-02-03T12:07:53.646Z,3935.8
2023-02-03T12:13:10.556Z,4178.7
2023-02-03T12:18:30.998Z,3107.5
2023-02-03T12:23:48.022Z,4272.5
2023-02-03T12:34:26.670Z,2815.8
2023-02-03T12:39:43.796Z,2710.8
2023-02-03T12:45:00.912Z,2283.3
2023-02-03T12:50:18.100Z,2061.3
2023-02-03T13:00:55.050Z,1900.4
2023-02-03T13:06:16.001Z,1699.2
2023-02-03T13:11:33.366Z,1968.3
2023-02-03T13:16:53.180Z,1953.3
2023-02-03T13:22:13.112Z,3027.1
2023-02-03T13:27:30.744Z,1792.1
2023-02-03T13:32:47.728Z,1562.5
2023-02-03T13:38:04.740Z,1535.8
2023-02-03T13:43:37.086Z,1858.3
2023-02-03T13:48:57.981Z,1801.2
2023-02-03T13:54:14.931Z,1579.6
2023-02-03T13:59:31.932Z,1114.6
2023-02-03T14:04:49.460Z,1352.9
2023-02-03T14:10:06.940Z,1607.1
2023-02-03T14:15:24.249Z,1166.2
2023-02-03T14:20:43.692Z,1386.7
2023-02-03T14:26:01.094Z,1424.6
2023-02-03T14:31:18.418Z,1232.5
2023-02-03T14:36:35.401Z,1035.4
2023-02-03T14:41:52.549Z,1085.8
2023-02-03T14:47:13.131Z,969.6
2023-02-03T14:52:30.419Z,1326.3
2023-02-03T14:57:47.671Z,2103.3
2023-02-03T15:03:05.030Z,2925.4
2023-02-03T15:08:22.316Z,2568.3
2023-02-03T15:13:39.859Z,1548.7
2023-02-03T15:18:57.334Z,2528.8
2023-02-03T15:24:14.453Z,2032.5
2023-02-03T15:29:31.868Z,2158.3
2023-02-03T15:40:08.602Z,1485.8
2023-02-03T15:45:25.752Z,1296.7
2023-02-03T15:50:43.665Z,1292.9
2023-02-03T15:56:04.040Z,1163.3
2023-02-03T16:01:21.271Z,897.1
2023-02-03T16:06:38.535Z,515.8
2023-02-03T16:11:55.894Z,384.6
2023-02-03T16:17:13.357Z,269.2
2023-02-03T16:22:32.045Z,162.9
2023-02-03T16:27:50.613Z,46.7
2023-02-03T16:33:08.489Z,36.7
2023-02-03T16:43:49.478Z,0.9
2023-02-03T16:49:06.771Z,0
2023-02-03T16:54:24.448Z,0
2023-02-03T16:59:42.292Z,0
2023-02-03T17:05:00.469Z,0
2023-02-03T17:10:18.094Z,0
2023-02-03T17:15:38.651Z,0
2023-02-03T17:20:58.708Z,0
2023-02-03T17:26:19.604Z,0
2023-02-03T17:31:37.423Z,0
2023-02-03T17:36:55.234Z,0
2023-02-03T17:58:14.972Z,0
2023-02-03T18:03:32.397Z,0
2023-02-03T18:08:50.225Z,0
2023-02-03T18:14:07.869Z,0
2023-02-03T18:19:28.139Z,0
2023-02-03T18:24:45.680Z,0
2023-02-03T18:30:03.393Z,0
2023-02-03T18:35:21.259Z,0
2023-02-03T18:40:39.224Z,0
2023-02-03T18:46:00.149Z,0
2023-02-03T18:51:18.627Z,0
2023-02-03T18:56:37.225Z,0
2023-02-03T19:07:18.401Z,0
2023-02-03T19:12:41.965Z,0
2023-02-03T19:18:00.034Z,0
2023-02-03T19:23:17.806Z,0
2023-02-03T19:33:52.732Z,0
2023-02-03T19:39:10.152Z,0
2023-02-03T19:44:28.303Z,0
2023-02-03T19:49:46.358Z,0
2023-02-03T20:00:35.544Z,0
2023-02-03T20:05:56.585Z,0
2023-02-03T20:11:14.589Z,0
2023-02-03T20:16:32.842Z,0
2023-02-03T20:21:58.636Z,0
2023-02-03T20:27:16.257Z,0
2023-02-03T20:32:34.554Z,0
2023-02-03T20:43:13.571Z,0
2023-02-03T20:48:34.414Z,0
2023-02-03T20:53:53.148Z,0
2023-02-03T20:59:12.436Z,0
2023-02-03T21:04:35.758Z,0
2023-02-03T21:09:54.373Z,0
2023-02-03T21:20:36.267Z,0
2023-02-03T21:25:53.612Z,0
2023-02-03T21:31:11.374Z,0
2023-02-03T21:36:29.041Z,0
2023-02-03T21:41:46.539Z,0
2023-02-03T21:47:04.236Z,0
2023-02-03T21:52:23.531Z,0
2023-02-03T21:57:41.207Z,0
2023-02-03T22:03:07.264Z,0
2023-02-03T22:08:25.062Z,0
2023-02-03T22:13:42.372Z,0
2023-02-03T22:18:59.903Z,0
2023-02-03T22:24:17.278Z,0
2023-02-03T22:29:34.768Z,0
2023-02-03T22:34:52.275Z,0
2023-02-03T22:40:09.863Z,0
2023-02-03T22:45:27.450Z,0
2023-02-03T22:50:44.823Z,0
2023-02-03T22:56:02.388Z,0
2023-02-03T23:01:21.319Z,0
2023-02-03T23:06:38.899Z,0
2023-02-03T23:11:56.572Z,0
2023-02-03T23:17:19.600Z,0
2023-02-03T23:22:37.132Z,0
2023-02-03T23:27:54.837Z,0
2023-02-03T23:33:12.511Z,0
2023-02-03T23:38:46.234Z,0
2023-02-03T23:44:03.860Z,0
2023-02-03T23:49:24.196Z,0
2023-02-03T23:54:41.989Z,0
2023-02-03T23:59:59.701Z,0
